sensor_id;sensor_type;location;lat;lon;timestamp;P1;durP1;ratioP1;P2;durP2;ratioP2
14377;SDS011;7272;53.668;9.578;2023-04-03T00:02:47;2.83;;;1.90;;
14377;SDS011;7272;53.668;9.578;2023-04-03T00:05:49;2.47;;;1.80;;
14377;SDS011;7272;53.668;9.578;2023-04-03T00:08:51;2.90;;;2.27;;
14377;SDS011;7272;53.668;9.578;2023-04-03T00:11:55;5.87;;;2.73;;
14377;SDS011;7272;53.668;9.578;2023-04-03T00:14:57;3.63;;;2.13;;
14377;SDS011;7272;53.668;9.578;2023-04-03T00:17:59;2.83;;;2.30;;
14377;SDS011;7272;53.668;9.578;2023-04-03T00:21:01;5.60;;;2.07;;
14377;SDS011;7272;53.668;9.578;2023-04-03T00:24:04;3.50;;;2.20;;
14377;SDS011;7272;53.668;9.578;2023-04-03T00:27:08;3.67;;;2.30;;
14377;SDS011;7272;53.668;9.578;2023-04-03T00:30:13;5.07;;;2.70;;
14377;SDS011;7272;53.668;9.578;2023-04-03T00:33:16;4.80;;;2.37;;
14377;SDS011;7272;53.668;9.578;2023-04-03T00:36:21;6.23;;;2.30;;
14377;SDS011;7272;53.668;9.578;2023-04-03T00:39:23;4.37;;;2.33;;
14377;SDS011;7272;53.668;9.578;2023-04-03T00:42:27;5.63;;;2.63;;
14377;SDS011;7272;53.668;9.578;2023-04-03T00:45:30;5.27;;;2.40;;
14377;SDS011;7272;53.668;9.578;2023-04-03T00:48:34;4.37;;;2.70;;
14377;SDS011;7272;53.668;9.578;2023-04-03T00:51:40;4.83;;;2.77;;
14377;SDS011;7272;53.668;9.578;2023-04-03T00:54:42;4.30;;;2.40;;
14377;SDS011;7272;53.668;9.578;2023-04-03T00:57:48;3.37;;;2.57;;
14377;SDS011;7272;53.668;9.578;2023-04-03T01:00:52;2.90;;;2.70;;
14377;SDS011;7272;53.668;9.578;2023-04-03T01:03:58;2.63;;;2.20;;
14377;SDS011;7272;53.668;9.578;2023-04-03T01:07:02;3.33;;;2.30;;
14377;SDS011;7272;53.668;9.578;2023-04-03T01:10:06;3.43;;;2.07;;
14377;SDS011;7272;53.668;9.578;2023-04-03T01:13:22;4.17;;;2.60;;
14377;SDS011;7272;53.668;9.578;2023-04-03T01:16:26;2.50;;;2.33;;
14377;SDS011;7272;53.668;9.578;2023-04-03T01:19:32;3.10;;;2.80;;
14377;SDS011;7272;53.668;9.578;2023-04-03T01:22:36;4.60;;;2.77;;
14377;SDS011;7272;53.668;9.578;2023-04-03T01:25:45;3.27;;;2.50;;
14377;SDS011;7272;53.668;9.578;2023-04-03T01:28:50;6.20;;;2.50;;
14377;SDS011;7272;53.668;9.578;2023-04-03T01:31:56;3.60;;;2.43;;
14377;SDS011;7272;53.668;9.578;2023-04-03T01:35:00;4.47;;;2.40;;
14377;SDS011;7272;53.668;9.578;2023-04-03T01:38:02;2.90;;;2.70;;
14377;SDS011;7272;53.668;9.578;2023-04-03T01:41:04;3.80;;;2.53;;
14377;SDS011;7272;53.668;9.578;2023-04-03T01:44:06;5.03;;;2.60;;
14377;SDS011;7272;53.668;9.578;2023-04-03T01:47:09;3.93;;;2.53;;
14377;SDS011;7272;53.668;9.578;2023-04-03T01:50:13;3.00;;;2.40;;
14377;SDS011;7272;53.668;9.578;2023-04-03T01:53:15;4.27;;;2.47;;
14377;SDS011;7272;53.668;9.578;2023-04-03T01:56:17;3.23;;;2.20;;
14377;SDS011;7272;53.668;9.578;2023-04-03T01:59:20;2.93;;;2.00;;
14377;SDS011;7272;53.668;9.578;2023-04-03T02:02:23;3.30;;;2.20;;
14377;SDS011;7272;53.668;9.578;2023-04-03T02:05:26;2.87;;;2.27;;
14377;SDS011;7272;53.668;9.578;2023-04-03T02:08:28;2.40;;;2.17;;
14377;SDS011;7272;53.668;9.578;2023-04-03T02:11:30;2.27;;;2.07;;
14377;SDS011;7272;53.668;9.578;2023-04-03T02:14:32;2.37;;;1.97;;
14377;SDS011;7272;53.668;9.578;2023-04-03T02:17:36;5.23;;;2.70;;
14377;SDS011;7272;53.668;9.578;2023-04-03T02:20:38;1.70;;;1.60;;
14377;SDS011;7272;53.668;9.578;2023-04-03T02:23:40;3.03;;;2.43;;
14377;SDS011;7272;53.668;9.578;2023-04-03T02:26:41;3.20;;;2.60;;
14377;SDS011;7272;53.668;9.578;2023-04-03T02:29:43;4.90;;;2.77;;
14377;SDS011;7272;53.668;9.578;2023-04-03T02:32:47;3.30;;;2.70;;
14377;SDS011;7272;53.668;9.578;2023-04-03T02:35:51;3.47;;;2.70;;
14377;SDS011;7272;53.668;9.578;2023-04-03T02:38:55;3.23;;;2.40;;
14377;SDS011;7272;53.668;9.578;2023-04-03T02:41:57;3.67;;;2.80;;
14377;SDS011;7272;53.668;9.578;2023-04-03T02:45:01;6.10;;;2.77;;
14377;SDS011;7272;53.668;9.578;2023-04-03T02:48:05;4.13;;;2.60;;
14377;SDS011;7272;53.668;9.578;2023-04-03T02:51:07;3.07;;;2.67;;
14377;SDS011;7272;53.668;9.578;2023-04-03T02:54:09;3.07;;;2.30;;
14377;SDS011;7272;53.668;9.578;2023-04-03T02:57:15;2.60;;;2.30;;
14377;SDS011;7272;53.668;9.578;2023-04-03T03:00:17;2.57;;;2.37;;
14377;SDS011;7272;53.668;9.578;2023-04-03T03:03:21;5.47;;;2.80;;
14377;SDS011;7272;53.668;9.578;2023-04-03T03:06:23;3.53;;;2.97;;
14377;SDS011;7272;53.668;9.578;2023-04-03T03:09:25;3.17;;;2.40;;
14377;SDS011;7272;53.668;9.578;2023-04-03T03:12:28;3.27;;;2.83;;
14377;SDS011;7272;53.668;9.578;2023-04-03T03:15:30;5.20;;;3.23;;
14377;SDS011;7272;53.668;9.578;2023-04-03T03:18:33;5.17;;;2.70;;
14377;SDS011;7272;53.668;9.578;2023-04-03T03:21:35;4.93;;;2.70;;
14377;SDS011;7272;53.668;9.578;2023-04-03T03:24:37;3.00;;;2.67;;
14377;SDS011;7272;53.668;9.578;2023-04-03T03:27:39;7.70;;;3.23;;
14377;SDS011;7272;53.668;9.578;2023-04-03T03:30:41;4.83;;;2.77;;
14377;SDS011;7272;53.668;9.578;2023-04-03T03:33:45;5.13;;;3.27;;
14377;SDS011;7272;53.668;9.578;2023-04-03T03:36:47;2.80;;;2.50;;
14377;SDS011;7272;53.668;9.578;2023-04-03T03:39:49;2.80;;;2.60;;
14377;SDS011;7272;53.668;9.578;2023-04-03T03:42:51;2.60;;;2.40;;
14377;SDS011;7272;53.668;9.578;2023-04-03T03:45:53;3.27;;;2.27;;
14377;SDS011;7272;53.668;9.578;2023-04-03T03:48:58;2.33;;;2.20;;
14377;SDS011;7272;53.668;9.578;2023-04-03T03:52:00;2.57;;;2.20;;
14377;SDS011;7272;53.668;9.578;2023-04-03T03:55:02;4.17;;;2.50;;
14377;SDS011;7272;53.668;9.578;2023-04-03T03:58:06;3.87;;;2.80;;
14377;SDS011;7272;53.668;9.578;2023-04-03T04:01:09;4.93;;;2.70;;
14377;SDS011;7272;53.668;9.578;2023-04-03T04:04:20;4.00;;;2.80;;
14377;SDS011;7272;53.668;9.578;2023-04-03T04:07:23;4.07;;;3.00;;
14377;SDS011;7272;53.668;9.578;2023-04-03T04:10:28;3.10;;;2.80;;
14377;SDS011;7272;53.668;9.578;2023-04-03T04:13:31;3.10;;;2.80;;
14377;SDS011;7272;53.668;9.578;2023-04-03T04:16:34;3.23;;;2.73;;
14377;SDS011;7272;53.668;9.578;2023-04-03T04:19:43;4.03;;;3.23;;
14377;SDS011;7272;53.668;9.578;2023-04-03T04:22:45;5.83;;;2.90;;
14377;SDS011;7272;53.668;9.578;2023-04-03T04:25:48;4.43;;;2.90;;
14377;SDS011;7272;53.668;9.578;2023-04-03T04:28:50;3.00;;;2.70;;
14377;SDS011;7272;53.668;9.578;2023-04-03T04:31:53;3.03;;;2.80;;
14377;SDS011;7272;53.668;9.578;2023-04-03T04:34:58;3.07;;;2.87;;
14377;SDS011;7272;53.668;9.578;2023-04-03T04:38:02;6.07;;;3.00;;
14377;SDS011;7272;53.668;9.578;2023-04-03T04:41:05;3.50;;;3.10;;
14377;SDS011;7272;53.668;9.578;2023-04-03T04:44:08;4.60;;;3.60;;
14377;SDS011;7272;53.668;9.578;2023-04-03T04:47:14;5.33;;;3.40;;
14377;SDS011;7272;53.668;9.578;2023-04-03T04:50:18;5.83;;;3.63;;
14377;SDS011;7272;53.668;9.578;2023-04-03T04:53:20;4.73;;;3.67;;
14377;SDS011;7272;53.668;9.578;2023-04-03T04:56:22;4.40;;;3.03;;
14377;SDS011;7272;53.668;9.578;2023-04-03T04:59:27;3.37;;;3.07;;
14377;SDS011;7272;53.668;9.578;2023-04-03T05:02:33;4.23;;;2.90;;
14377;SDS011;7272;53.668;9.578;2023-04-03T05:05:37;4.37;;;3.50;;
14377;SDS011;7272;53.668;9.578;2023-04-03T05:08:39;5.23;;;3.23;;
14377;SDS011;7272;53.668;9.578;2023-04-03T05:11:42;3.87;;;3.07;;
14377;SDS011;7272;53.668;9.578;2023-04-03T05:14:44;4.43;;;3.10;;
14377;SDS011;7272;53.668;9.578;2023-04-03T05:17:46;2.87;;;2.67;;
14377;SDS011;7272;53.668;9.578;2023-04-03T05:20:51;3.40;;;2.87;;
14377;SDS011;7272;53.668;9.578;2023-04-03T05:23:54;2.87;;;2.57;;
14377;SDS011;7272;53.668;9.578;2023-04-03T05:26:56;3.10;;;2.80;;
14377;SDS011;7272;53.668;9.578;2023-04-03T05:29:58;3.30;;;3.00;;
14377;SDS011;7272;53.668;9.578;2023-04-03T05:33:01;3.57;;;3.23;;
14377;SDS011;7272;53.668;9.578;2023-04-03T05:36:18;6.33;;;3.60;;
14377;SDS011;7272;53.668;9.578;2023-04-03T05:39:24;3.47;;;3.13;;
14377;SDS011;7272;53.668;9.578;2023-04-03T05:42:26;4.63;;;3.30;;
14377;SDS011;7272;53.668;9.578;2023-04-03T05:45:28;3.40;;;3.00;;
14377;SDS011;7272;53.668;9.578;2023-04-03T05:48:32;4.73;;;3.50;;
14377;SDS011;7272;53.668;9.578;2023-04-03T05:51:36;5.27;;;3.50;;
14377;SDS011;7272;53.668;9.578;2023-04-03T05:55:00;5.57;;;3.90;;
14377;SDS011;7272;53.668;9.578;2023-04-03T05:58:04;4.20;;;3.47;;
14377;SDS011;7272;53.668;9.578;2023-04-03T06:01:07;4.73;;;3.03;;
14377;SDS011;7272;53.668;9.578;2023-04-03T06:04:10;4.77;;;3.47;;
14377;SDS011;7272;53.668;9.578;2023-04-03T06:07:14;3.53;;;3.20;;
14377;SDS011;7272;53.668;9.578;2023-04-03T06:10:18;3.10;;;2.80;;
14377;SDS011;7272;53.668;9.578;2023-04-03T06:13:20;3.50;;;3.20;;
14377;SDS011;7272;53.668;9.578;2023-04-03T06:16:25;3.73;;;3.20;;
14377;SDS011;7272;53.668;9.578;2023-04-03T06:19:27;5.03;;;3.87;;
14377;SDS011;7272;53.668;9.578;2023-04-03T06:22:32;5.37;;;3.97;;
14377;SDS011;7272;53.668;9.578;2023-04-03T06:25:35;6.17;;;4.00;;
14377;SDS011;7272;53.668;9.578;2023-04-03T06:28:37;4.83;;;3.40;;
14377;SDS011;7272;53.668;9.578;2023-04-03T06:31:39;4.70;;;3.80;;
14377;SDS011;7272;53.668;9.578;2023-04-03T06:34:41;7.27;;;3.90;;
14377;SDS011;7272;53.668;9.578;2023-04-03T06:37:45;4.73;;;3.57;;
14377;SDS011;7272;53.668;9.578;2023-04-03T06:40:47;7.47;;;3.43;;
14377;SDS011;7272;53.668;9.578;2023-04-03T06:43:50;5.70;;;4.07;;
14377;SDS011;7272;53.668;9.578;2023-04-03T06:46:52;5.60;;;4.20;;
14377;SDS011;7272;53.668;9.578;2023-04-03T06:49:54;7.80;;;4.00;;
14377;SDS011;7272;53.668;9.578;2023-04-03T06:52:59;5.93;;;3.97;;
14377;SDS011;7272;53.668;9.578;2023-04-03T06:56:04;6.70;;;3.87;;
14377;SDS011;7272;53.668;9.578;2023-04-03T06:59:06;6.93;;;4.13;;
14377;SDS011;7272;53.668;9.578;2023-04-03T07:02:09;4.43;;;3.87;;
14377;SDS011;7272;53.668;9.578;2023-04-03T07:05:15;6.00;;;4.37;;
14377;SDS011;7272;53.668;9.578;2023-04-03T07:08:18;4.87;;;3.90;;
14377;SDS011;7272;53.668;9.578;2023-04-03T07:11:20;7.93;;;4.50;;
14377;SDS011;7272;53.668;9.578;2023-04-03T07:14:25;6.73;;;4.40;;
14377;SDS011;7272;53.668;9.578;2023-04-03T07:17:27;5.17;;;4.00;;
14377;SDS011;7272;53.668;9.578;2023-04-03T07:20:32;5.70;;;3.90;;
14377;SDS011;7272;53.668;9.578;2023-04-03T07:23:35;5.77;;;3.77;;
14377;SDS011;7272;53.668;9.578;2023-04-03T07:26:37;4.27;;;3.23;;
14377;SDS011;7272;53.668;9.578;2023-04-03T07:29:40;6.90;;;3.63;;
14377;SDS011;7272;53.668;9.578;2023-04-03T07:32:43;5.47;;;3.80;;
14377;SDS011;7272;53.668;9.578;2023-04-03T07:35:45;6.60;;;3.83;;
14377;SDS011;7272;53.668;9.578;2023-04-03T07:38:49;6.07;;;3.40;;
14377;SDS011;7272;53.668;9.578;2023-04-03T07:41:51;4.07;;;3.00;;
14377;SDS011;7272;53.668;9.578;2023-04-03T07:44:53;2.90;;;2.70;;
14377;SDS011;7272;53.668;9.578;2023-04-03T07:47:55;4.07;;;3.00;;
14377;SDS011;7272;53.668;9.578;2023-04-03T07:50:59;2.93;;;2.70;;
14377;SDS011;7272;53.668;9.578;2023-04-03T07:54:03;2.50;;;2.23;;
14377;SDS011;7272;53.668;9.578;2023-04-03T07:57:05;3.30;;;1.93;;
14377;SDS011;7272;53.668;9.578;2023-04-03T08:00:07;4.83;;;2.50;;
14377;SDS011;7272;53.668;9.578;2023-04-03T08:03:15;2.63;;;2.00;;
14377;SDS011;7272;53.668;9.578;2023-04-03T08:06:17;4.13;;;2.20;;
14377;SDS011;7272;53.668;9.578;2023-04-03T08:09:21;2.40;;;1.40;;
14377;SDS011;7272;53.668;9.578;2023-04-03T08:12:23;1.90;;;1.47;;
14377;SDS011;7272;53.668;9.578;2023-04-03T08:15:25;3.07;;;1.67;;
14377;SDS011;7272;53.668;9.578;2023-04-03T08:18:27;3.13;;;1.63;;
14377;SDS011;7272;53.668;9.578;2023-04-03T08:21:29;1.53;;;1.30;;
14377;SDS011;7272;53.668;9.578;2023-04-03T08:24:33;2.30;;;1.30;;
14377;SDS011;7272;53.668;9.578;2023-04-03T08:27:35;3.37;;;1.30;;
14377;SDS011;7272;53.668;9.578;2023-04-03T08:30:38;1.53;;;1.43;;
14377;SDS011;7272;53.668;9.578;2023-04-03T08:33:44;1.93;;;1.20;;
14377;SDS011;7272;53.668;9.578;2023-04-03T08:36:46;1.57;;;1.10;;
14377;SDS011;7272;53.668;9.578;2023-04-03T08:39:50;2.50;;;1.10;;
14377;SDS011;7272;53.668;9.578;2023-04-03T08:42:59;2.10;;;1.10;;
14377;SDS011;7272;53.668;9.578;2023-04-03T08:46:14;1.57;;;1.20;;
14377;SDS011;7272;53.668;9.578;2023-04-03T08:49:20;2.00;;;1.03;;
14377;SDS011;7272;53.668;9.578;2023-04-03T08:52:27;1.90;;;1.10;;
14377;SDS011;7272;53.668;9.578;2023-04-03T08:55:39;1.77;;;1.07;;
14377;SDS011;7272;53.668;9.578;2023-04-03T08:58:45;2.07;;;1.20;;
14377;SDS011;7272;53.668;9.578;2023-04-03T09:01:52;2.93;;;1.27;;
14377;SDS011;7272;53.668;9.578;2023-04-03T09:04:55;3.27;;;1.30;;
14377;SDS011;7272;53.668;9.578;2023-04-03T09:07:59;1.30;;;1.17;;
14377;SDS011;7272;53.668;9.578;2023-04-03T09:11:09;1.60;;;0.90;;
14377;SDS011;7272;53.668;9.578;2023-04-03T09:14:24;2.07;;;1.30;;
14377;SDS011;7272;53.668;9.578;2023-04-03T09:17:35;2.73;;;1.20;;
14377;SDS011;7272;53.668;9.578;2023-04-03T09:20:45;1.73;;;1.07;;
14377;SDS011;7272;53.668;9.578;2023-04-03T09:23:51;2.03;;;1.20;;
14377;SDS011;7272;53.668;9.578;2023-04-03T09:26:59;1.57;;;0.90;;
14377;SDS011;7272;53.668;9.578;2023-04-03T09:30:08;1.13;;;1.00;;
14377;SDS011;7272;53.668;9.578;2023-04-03T09:33:14;1.03;;;1.00;;
14377;SDS011;7272;53.668;9.578;2023-04-03T09:39:49;1.17;;;0.83;;
14377;SDS011;7272;53.668;9.578;2023-04-03T09:42:58;3.73;;;1.10;;
14377;SDS011;7272;53.668;9.578;2023-04-03T09:46:17;1.63;;;1.10;;
14377;SDS011;7272;53.668;9.578;2023-04-03T09:49:26;1.10;;;1.00;;
14377;SDS011;7272;53.668;9.578;2023-04-03T09:52:28;1.33;;;0.90;;
14377;SDS011;7272;53.668;9.578;2023-04-03T09:55:32;0.80;;;0.80;;
14377;SDS011;7272;53.668;9.578;2023-04-03T09:58:36;1.10;;;0.77;;
14377;SDS011;7272;53.668;9.578;2023-04-03T10:01:41;1.70;;;1.13;;
14377;SDS011;7272;53.668;9.578;2023-04-03T10:04:44;2.33;;;0.90;;
14377;SDS011;7272;53.668;9.578;2023-04-03T10:07:49;1.90;;;1.10;;
14377;SDS011;7272;53.668;9.578;2023-04-03T10:11:11;1.73;;;0.90;;
14377;SDS011;7272;53.668;9.578;2023-04-03T10:14:17;1.27;;;0.93;;
14377;SDS011;7272;53.668;9.578;2023-04-03T10:17:21;1.63;;;1.10;;
14377;SDS011;7272;53.668;9.578;2023-04-03T10:20:33;1.27;;;1.07;;
14377;SDS011;7272;53.668;9.578;2023-04-03T10:23:39;1.30;;;1.20;;
14377;SDS011;7272;53.668;9.578;2023-04-03T10:26:49;1.87;;;1.20;;
14377;SDS011;7272;53.668;9.578;2023-04-03T10:29:59;1.43;;;1.00;;
14377;SDS011;7272;53.668;9.578;2023-04-03T10:33:19;1.97;;;1.10;;
14377;SDS011;7272;53.668;9.578;2023-04-03T10:36:33;2.40;;;1.20;;
14377;SDS011;7272;53.668;9.578;2023-04-03T10:39:41;1.50;;;1.20;;
14377;SDS011;7272;53.668;9.578;2023-04-03T10:42:53;1.40;;;1.07;;
14377;SDS011;7272;53.668;9.578;2023-04-03T10:46:03;2.07;;;1.33;;
14377;SDS011;7272;53.668;9.578;2023-04-03T10:49:13;2.83;;;1.10;;
14377;SDS011;7272;53.668;9.578;2023-04-03T10:52:22;1.13;;;1.03;;
14377;SDS011;7272;53.668;9.578;2023-04-03T10:55:30;1.37;;;1.07;;
14377;SDS011;7272;53.668;9.578;2023-04-03T10:58:37;1.50;;;1.30;;
14377;SDS011;7272;53.668;9.578;2023-04-03T11:01:45;1.83;;;1.20;;
14377;SDS011;7272;53.668;9.578;2023-04-03T11:04:50;2.13;;;1.40;;
14377;SDS011;7272;53.668;9.578;2023-04-03T11:07:54;1.67;;;1.53;;
14377;SDS011;7272;53.668;9.578;2023-04-03T11:11:00;1.33;;;1.23;;
14377;SDS011;7272;53.668;9.578;2023-04-03T11:14:09;2.90;;;1.63;;
14377;SDS011;7272;53.668;9.578;2023-04-03T11:17:21;2.00;;;1.50;;
14377;SDS011;7272;53.668;9.578;2023-04-03T11:20:31;2.47;;;1.63;;
14377;SDS011;7272;53.668;9.578;2023-04-03T11:23:34;2.20;;;1.70;;
14377;SDS011;7272;53.668;9.578;2023-04-03T11:26:39;2.00;;;1.23;;
14377;SDS011;7272;53.668;9.578;2023-04-03T11:29:42;2.30;;;1.37;;
14377;SDS011;7272;53.668;9.578;2023-04-03T11:33:08;2.07;;;1.40;;
14377;SDS011;7272;53.668;9.578;2023-04-03T11:36:25;2.40;;;1.43;;
14377;SDS011;7272;53.668;9.578;2023-04-03T11:39:31;2.20;;;1.43;;
14377;SDS011;7272;53.668;9.578;2023-04-03T11:42:37;3.10;;;1.73;;
14377;SDS011;7272;53.668;9.578;2023-04-03T11:45:50;1.50;;;1.30;;
14377;SDS011;7272;53.668;9.578;2023-04-03T11:48:56;1.80;;;1.30;;
14377;SDS011;7272;53.668;9.578;2023-04-03T11:51:58;1.37;;;1.20;;
14377;SDS011;7272;53.668;9.578;2023-04-03T12:10:16;1.60;;;1.20;;
14377;SDS011;7272;53.668;9.578;2023-04-03T12:13:19;1.98;;;1.30;;
14377;SDS011;7272;53.668;9.578;2023-04-03T12:16:22;2.17;;;1.50;;
14377;SDS011;7272;53.668;9.578;2023-04-03T12:19:29;1.63;;;1.50;;
14377;SDS011;7272;53.668;9.578;2023-04-03T12:22:34;1.90;;;1.17;;
14377;SDS011;7272;53.668;9.578;2023-04-03T12:25:48;2.37;;;1.27;;
14377;SDS011;7272;53.668;9.578;2023-04-03T12:28:53;2.57;;;1.07;;
14377;SDS011;7272;53.668;9.578;2023-04-03T12:31:58;2.27;;;1.47;;
14377;SDS011;7272;53.668;9.578;2023-04-03T12:35:14;2.00;;;1.47;;
14377;SDS011;7272;53.668;9.578;2023-04-03T12:42:04;2.47;;;1.70;;
14377;SDS011;7272;53.668;9.578;2023-04-03T12:45:19;1.10;;;1.00;;
14377;SDS011;7272;53.668;9.578;2023-04-03T12:48:24;2.60;;;1.47;;
14377;SDS011;7272;53.668;9.578;2023-04-03T12:51:28;2.43;;;1.50;;
14377;SDS011;7272;53.668;9.578;2023-04-03T12:54:36;1.67;;;1.30;;
14377;SDS011;7272;53.668;9.578;2023-04-03T12:57:43;1.27;;;1.10;;
14377;SDS011;7272;53.668;9.578;2023-04-03T13:00:45;2.10;;;1.27;;
14377;SDS011;7272;53.668;9.578;2023-04-03T13:03:48;1.30;;;1.20;;
14377;SDS011;7272;53.668;9.578;2023-04-03T13:06:52;1.80;;;1.57;;
14377;SDS011;7272;53.668;9.578;2023-04-03T13:09:55;1.47;;;1.20;;
14377;SDS011;7272;53.668;9.578;2023-04-03T13:13:08;1.63;;;1.10;;
14377;SDS011;7272;53.668;9.578;2023-04-03T13:16:11;1.50;;;1.20;;
14377;SDS011;7272;53.668;9.578;2023-04-03T13:19:16;2.47;;;1.48;;
14377;SDS011;7272;53.668;9.578;2023-04-03T13:22:22;1.40;;;1.07;;
14377;SDS011;7272;53.668;9.578;2023-04-03T13:25:29;1.13;;;1.00;;
14377;SDS011;7272;53.668;9.578;2023-04-03T13:28:35;2.60;;;1.20;;
14377;SDS011;7272;53.668;9.578;2023-04-03T13:31:40;1.97;;;1.10;;
14377;SDS011;7272;53.668;9.578;2023-04-03T13:34:42;1.80;;;1.70;;
14377;SDS011;7272;53.668;9.578;2023-04-03T13:37:53;2.63;;;1.40;;
14377;SDS011;7272;53.668;9.578;2023-04-03T13:40:58;1.70;;;1.10;;
14377;SDS011;7272;53.668;9.578;2023-04-03T13:44:17;2.33;;;1.47;;
14377;SDS011;7272;53.668;9.578;2023-04-03T13:47:27;1.20;;;1.10;;
14377;SDS011;7272;53.668;9.578;2023-04-03T13:50:50;2.40;;;1.23;;
14377;SDS011;7272;53.668;9.578;2023-04-03T13:54:00;1.50;;;1.20;;
14377;SDS011;7272;53.668;9.578;2023-04-03T13:57:03;1.20;;;1.10;;
14377;SDS011;7272;53.668;9.578;2023-04-03T14:00:25;0.93;;;0.93;;
14377;SDS011;7272;53.668;9.578;2023-04-03T14:03:33;1.48;;;1.30;;
14377;SDS011;7272;53.668;9.578;2023-04-03T14:06:39;2.05;;;1.50;;
14377;SDS011;7272;53.668;9.578;2023-04-03T14:09:41;2.33;;;1.40;;
14377;SDS011;7272;53.668;9.578;2023-04-03T14:12:43;1.93;;;1.20;;
14377;SDS011;7272;53.668;9.578;2023-04-03T14:15:48;1.90;;;1.40;;
14377;SDS011;7272;53.668;9.578;2023-04-03T14:18:51;1.37;;;1.20;;
14377;SDS011;7272;53.668;9.578;2023-04-03T14:21:53;2.60;;;1.50;;
14377;SDS011;7272;53.668;9.578;2023-04-03T14:24:56;2.03;;;1.30;;
14377;SDS011;7272;53.668;9.578;2023-04-03T14:27:58;1.60;;;1.10;;
14377;SDS011;7272;53.668;9.578;2023-04-03T14:31:02;1.83;;;1.13;;
14377;SDS011;7272;53.668;9.578;2023-04-03T14:34:05;2.07;;;1.40;;
14377;SDS011;7272;53.668;9.578;2023-04-03T14:37:09;2.07;;;1.47;;
14377;SDS011;7272;53.668;9.578;2023-04-03T14:40:13;3.57;;;1.30;;
14377;SDS011;7272;53.668;9.578;2023-04-03T14:43:18;1.47;;;1.17;;
14377;SDS011;7272;53.668;9.578;2023-04-03T14:46:22;2.90;;;1.42;;
14377;SDS011;7272;53.668;9.578;2023-04-03T14:49:28;1.60;;;1.30;;
14377;SDS011;7272;53.668;9.578;2023-04-03T14:52:32;1.93;;;1.40;;
14377;SDS011;7272;53.668;9.578;2023-04-03T14:55:35;1.63;;;1.30;;
14377;SDS011;7272;53.668;9.578;2023-04-03T14:58:36;1.57;;;1.30;;
14377;SDS011;7272;53.668;9.578;2023-04-03T15:01:40;1.63;;;1.10;;
14377;SDS011;7272;53.668;9.578;2023-04-03T15:04:42;3.37;;;1.40;;
14377;SDS011;7272;53.668;9.578;2023-04-03T15:07:45;2.23;;;1.30;;
14377;SDS011;7272;53.668;9.578;2023-04-03T15:10:49;1.43;;;1.27;;
14377;SDS011;7272;53.668;9.578;2023-04-03T15:13:52;1.83;;;1.33;;
14377;SDS011;7272;53.668;9.578;2023-04-03T15:16:56;3.40;;;1.70;;
14377;SDS011;7272;53.668;9.578;2023-04-03T15:19:58;1.93;;;1.37;;
14377;SDS011;7272;53.668;9.578;2023-04-03T15:23:00;4.13;;;1.50;;
14377;SDS011;7272;53.668;9.578;2023-04-03T15:26:02;1.73;;;1.40;;
14377;SDS011;7272;53.668;9.578;2023-04-03T15:29:04;2.08;;;1.40;;
14377;SDS011;7272;53.668;9.578;2023-04-03T15:32:08;1.50;;;1.33;;
14377;SDS011;7272;53.668;9.578;2023-04-03T15:35:10;1.90;;;1.15;;
14377;SDS011;7272;53.668;9.578;2023-04-03T15:38:12;1.80;;;1.37;;
14377;SDS011;7272;53.668;9.578;2023-04-03T15:41:14;2.40;;;1.33;;
14377;SDS011;7272;53.668;9.578;2023-04-03T15:44:16;1.60;;;1.50;;
14377;SDS011;7272;53.668;9.578;2023-04-03T15:47:19;3.33;;;1.70;;
14377;SDS011;7272;53.668;9.578;2023-04-03T15:50:21;3.00;;;1.50;;
14377;SDS011;7272;53.668;9.578;2023-04-03T15:53:24;1.67;;;1.40;;
14377;SDS011;7272;53.668;9.578;2023-04-03T15:56:26;2.53;;;1.90;;
14377;SDS011;7272;53.668;9.578;2023-04-03T15:59:28;1.75;;;1.40;;
14377;SDS011;7272;53.668;9.578;2023-04-03T16:02:33;4.93;;;1.60;;
14377;SDS011;7272;53.668;9.578;2023-04-03T16:05:35;2.33;;;1.67;;
14377;SDS011;7272;53.668;9.578;2023-04-03T16:08:38;2.00;;;1.60;;
14377;SDS011;7272;53.668;9.578;2023-04-03T16:11:40;2.57;;;1.60;;
14377;SDS011;7272;53.668;9.578;2023-04-03T16:14:43;2.07;;;1.50;;
14377;SDS011;7272;53.668;9.578;2023-04-03T16:17:46;3.53;;;1.40;;
14377;SDS011;7272;53.668;9.578;2023-04-03T16:20:49;1.77;;;1.47;;
14377;SDS011;7272;53.668;9.578;2023-04-03T16:23:51;3.00;;;1.83;;
14377;SDS011;7272;53.668;9.578;2023-04-03T16:26:53;2.10;;;1.50;;
14377;SDS011;7272;53.668;9.578;2023-04-03T16:29:54;3.47;;;1.80;;
14377;SDS011;7272;53.668;9.578;2023-04-03T16:32:58;2.50;;;1.70;;
14377;SDS011;7272;53.668;9.578;2023-04-03T16:36:00;2.50;;;1.80;;
14377;SDS011;7272;53.668;9.578;2023-04-03T16:39:03;2.10;;;1.60;;
14377;SDS011;7272;53.668;9.578;2023-04-03T16:42:05;1.43;;;1.33;;
14377;SDS011;7272;53.668;9.578;2023-04-03T16:45:09;2.03;;;1.60;;
14377;SDS011;7272;53.668;9.578;2023-04-03T16:48:13;1.40;;;1.27;;
14377;SDS011;7272;53.668;9.578;2023-04-03T16:51:15;1.43;;;1.00;;
14377;SDS011;7272;53.668;9.578;2023-04-03T16:54:17;2.00;;;1.37;;
14377;SDS011;7272;53.668;9.578;2023-04-03T16:57:19;1.53;;;1.20;;
14377;SDS011;7272;53.668;9.578;2023-04-03T17:00:21;1.30;;;1.17;;
14377;SDS011;7272;53.668;9.578;2023-04-03T17:03:24;1.87;;;1.10;;
14377;SDS011;7272;53.668;9.578;2023-04-03T17:06:28;2.07;;;1.20;;
14377;SDS011;7272;53.668;9.578;2023-04-03T17:09:30;3.27;;;1.73;;
14377;SDS011;7272;53.668;9.578;2023-04-03T17:12:33;2.30;;;1.70;;
14377;SDS011;7272;53.668;9.578;2023-04-03T17:15:35;2.70;;;1.50;;
14377;SDS011;7272;53.668;9.578;2023-04-03T17:18:39;2.17;;;1.50;;
14377;SDS011;7272;53.668;9.578;2023-04-03T17:21:41;1.80;;;1.30;;
14377;SDS011;7272;53.668;9.578;2023-04-03T17:24:44;2.30;;;1.50;;
14377;SDS011;7272;53.668;9.578;2023-04-03T17:27:46;1.87;;;1.60;;
14377;SDS011;7272;53.668;9.578;2023-04-03T17:30:48;2.27;;;1.57;;
14377;SDS011;7272;53.668;9.578;2023-04-03T17:33:51;1.50;;;1.40;;
14377;SDS011;7272;53.668;9.578;2023-04-03T17:36:53;2.23;;;1.57;;
14377;SDS011;7272;53.668;9.578;2023-04-03T17:39:55;1.90;;;1.30;;
14377;SDS011;7272;53.668;9.578;2023-04-03T17:42:57;2.57;;;1.40;;
14377;SDS011;7272;53.668;9.578;2023-04-03T17:46:00;4.13;;;1.33;;
14377;SDS011;7272;53.668;9.578;2023-04-03T17:49:04;2.38;;;1.42;;
14377;SDS011;7272;53.668;9.578;2023-04-03T17:52:06;1.57;;;1.37;;
14377;SDS011;7272;53.668;9.578;2023-04-03T17:55:08;3.17;;;2.03;;
14377;SDS011;7272;53.668;9.578;2023-04-03T17:58:12;3.00;;;1.97;;
14377;SDS011;7272;53.668;9.578;2023-04-03T18:01:16;1.80;;;1.70;;
14377;SDS011;7272;53.668;9.578;2023-04-03T18:04:20;2.07;;;1.50;;
14377;SDS011;7272;53.668;9.578;2023-04-03T18:07:22;2.00;;;1.47;;
14377;SDS011;7272;53.668;9.578;2023-04-03T18:10:25;3.37;;;2.03;;
14377;SDS011;7272;53.668;9.578;2023-04-03T18:13:27;3.57;;;1.93;;
14377;SDS011;7272;53.668;9.578;2023-04-03T18:16:29;3.43;;;1.60;;
14377;SDS011;7272;53.668;9.578;2023-04-03T18:19:33;2.07;;;1.63;;
14377;SDS011;7272;53.668;9.578;2023-04-03T18:22:35;3.60;;;1.97;;
14377;SDS011;7272;53.668;9.578;2023-04-03T18:25:37;4.30;;;2.00;;
14377;SDS011;7272;53.668;9.578;2023-04-03T18:28:39;2.00;;;1.57;;
14377;SDS011;7272;53.668;9.578;2023-04-03T18:31:44;2.93;;;2.20;;
14377;SDS011;7272;53.668;9.578;2023-04-03T18:34:49;2.50;;;1.50;;
14377;SDS011;7272;53.668;9.578;2023-04-03T18:37:51;3.67;;;2.45;;
14377;SDS011;7272;53.668;9.578;2023-04-03T18:40:53;3.13;;;2.00;;
14377;SDS011;7272;53.668;9.578;2023-04-03T18:43:55;3.17;;;2.20;;
14377;SDS011;7272;53.668;9.578;2023-04-03T18:46:59;4.03;;;2.00;;
14377;SDS011;7272;53.668;9.578;2023-04-03T18:50:03;2.47;;;2.10;;
14377;SDS011;7272;53.668;9.578;2023-04-03T18:53:07;3.27;;;2.33;;
14377;SDS011;7272;53.668;9.578;2023-04-03T18:56:09;2.90;;;2.17;;
14377;SDS011;7272;53.668;9.578;2023-04-03T18:59:11;2.00;;;1.80;;
14377;SDS011;7272;53.668;9.578;2023-04-03T19:02:13;2.67;;;2.03;;
14377;SDS011;7272;53.668;9.578;2023-04-03T19:05:17;2.63;;;1.90;;
14377;SDS011;7272;53.668;9.578;2023-04-03T19:08:19;3.03;;;1.93;;
14377;SDS011;7272;53.668;9.578;2023-04-03T19:11:22;3.53;;;2.03;;